sensor_id;sensor_type;location;lat;lon;timestamp;P1;durP1;ratioP1;P2;durP2;ratioP2
18407;SDS011;9330;52.210;21.174;2022-11-15T00:01:31;23.50;;;18.02;;
18407;SDS011;9330;52.210;21.174;2022-11-15T00:03:57;22.63;;;17.80;;
18407;SDS011;9330;52.210;21.174;2022-11-15T00:06:24;19.65;;;16.10;;
18407;SDS011;9330;52.210;21.174;2022-11-15T00:08:53;22.33;;;17.08;;
18407;SDS011;9330;52.210;21.174;2022-11-15T00:11:19;22.45;;;16.92;;
18407;SDS011;9330;52.210;21.174;2022-11-15T00:13:46;22.80;;;17.00;;
18407;SDS011;9330;52.210;21.174;2022-11-15T00:16:13;19.95;;;16.77;;
18407;SDS011;9330;52.210;21.174;2022-11-15T00:18:40;22.85;;;17.52;;
18407;SDS011;9330;52.210;21.174;2022-11-15T00:21:10;23.77;;;17.58;;
18407;SDS011;9330;52.210;21.174;2022-11-15T00:23:37;25.80;;;20.20;;
18407;SDS011;9330;52.210;21.174;2022-11-15T00:26:06;23.35;;;18.73;;
18407;SDS011;9330;52.210;21.174;2022-11-15T00:28:33;22.73;;;17.83;;
18407;SDS011;9330;52.210;21.174;2022-11-15T00:31:00;24.38;;;18.88;;
18407;SDS011;9330;52.210;21.174;2022-11-15T00:33:28;23.63;;;18.63;;
18407;SDS011;9330;52.210;21.174;2022-11-15T00:35:59;23.55;;;19.20;;
18407;SDS011;9330;52.210;21.174;2022-11-15T00:38:29;23.88;;;18.50;;
18407;SDS011;9330;52.210;21.174;2022-11-15T00:40:57;24.30;;;18.52;;
18407;SDS011;9330;52.210;21.174;2022-11-15T00:43:25;25.13;;;19.30;;
18407;SDS011;9330;52.210;21.174;2022-11-15T00:45:52;25.88;;;20.02;;
18407;SDS011;9330;52.210;21.174;2022-11-15T00:48:19;26.70;;;19.67;;
18407;SDS011;9330;52.210;21.174;2022-11-15T00:50:46;26.10;;;20.02;;
18407;SDS011;9330;52.210;21.174;2022-11-15T00:53:14;24.83;;;19.73;;
18407;SDS011;9330;52.210;21.174;2022-11-15T00:55:41;25.25;;;19.80;;
18407;SDS011;9330;52.210;21.174;2022-11-15T00:58:08;25.38;;;20.08;;
18407;SDS011;9330;52.210;21.174;2022-11-15T01:00:37;23.92;;;18.35;;
18407;SDS011;9330;52.210;21.174;2022-11-15T01:03:04;25.38;;;19.40;;
18407;SDS011;9330;52.210;21.174;2022-11-15T01:05:30;26.80;;;19.75;;
18407;SDS011;9330;52.210;21.174;2022-11-15T01:07:57;27.40;;;21.08;;
18407;SDS011;9330;52.210;21.174;2022-11-15T01:10:24;29.23;;;22.08;;
18407;SDS011;9330;52.210;21.174;2022-11-15T01:12:51;29.05;;;22.15;;
18407;SDS011;9330;52.210;21.174;2022-11-15T01:15:18;28.45;;;21.33;;
18407;SDS011;9330;52.210;21.174;2022-11-15T01:17:47;29.73;;;23.30;;
18407;SDS011;9330;52.210;21.174;2022-11-15T01:20:13;29.23;;;22.17;;
18407;SDS011;9330;52.210;21.174;2022-11-15T01:22:40;31.02;;;22.35;;
18407;SDS011;9330;52.210;21.174;2022-11-15T01:25:07;28.95;;;21.85;;
18407;SDS011;9330;52.210;21.174;2022-11-15T01:27:34;29.08;;;21.75;;
18407;SDS011;9330;52.210;21.174;2022-11-15T01:30:01;31.33;;;22.60;;
18407;SDS011;9330;52.210;21.174;2022-11-15T01:32:28;32.08;;;22.48;;
18407;SDS011;9330;52.210;21.174;2022-11-15T01:34:57;29.38;;;22.92;;
18407;SDS011;9330;52.210;21.174;2022-11-15T01:37:24;30.08;;;22.88;;
18407;SDS011;9330;52.210;21.174;2022-11-15T01:39:50;33.00;;;24.50;;
18407;SDS011;9330;52.210;21.174;2022-11-15T01:42:17;31.83;;;23.48;;
18407;SDS011;9330;52.210;21.174;2022-11-15T01:44:45;32.13;;;23.23;;
18407;SDS011;9330;52.210;21.174;2022-11-15T01:47:14;32.35;;;22.67;;
18407;SDS011;9330;52.210;21.174;2022-11-15T01:49:47;38.25;;;26.73;;
18407;SDS011;9330;52.210;21.174;2022-11-15T01:52:22;31.48;;;23.35;;
18407;SDS011;9330;52.210;21.174;2022-11-15T01:54:53;37.83;;;27.30;;
18407;SDS011;9330;52.210;21.174;2022-11-15T01:57:25;34.45;;;24.98;;
18407;SDS011;9330;52.210;21.174;2022-11-15T01:59:52;35.45;;;25.10;;
18407;SDS011;9330;52.210;21.174;2022-11-15T02:02:20;35.38;;;25.00;;
18407;SDS011;9330;52.210;21.174;2022-11-15T02:04:47;35.50;;;23.65;;
18407;SDS011;9330;52.210;21.174;2022-11-15T02:07:15;33.97;;;24.33;;
18407;SDS011;9330;52.210;21.174;2022-11-15T02:09:44;33.88;;;25.38;;
18407;SDS011;9330;52.210;21.174;2022-11-15T02:12:13;34.17;;;24.85;;
18407;SDS011;9330;52.210;21.174;2022-11-15T02:14:42;34.75;;;24.30;;
18407;SDS011;9330;52.210;21.174;2022-11-15T02:17:16;37.67;;;25.60;;
18407;SDS011;9330;52.210;21.174;2022-11-15T02:20:08;33.47;;;24.42;;
18407;SDS011;9330;52.210;21.174;2022-11-15T02:22:59;37.55;;;25.48;;
18407;SDS011;9330;52.210;21.174;2022-11-15T02:25:46;35.05;;;25.02;;
18407;SDS011;9330;52.210;21.174;2022-11-15T02:31:14;34.80;;;26.00;;
18407;SDS011;9330;52.210;21.174;2022-11-15T02:33:52;35.15;;;24.08;;
18407;SDS011;9330;52.210;21.174;2022-11-15T02:36:27;37.97;;;26.05;;
18407;SDS011;9330;52.210;21.174;2022-11-15T02:39:03;42.25;;;25.85;;
18407;SDS011;9330;52.210;21.174;2022-11-15T02:41:38;36.42;;;25.13;;
18407;SDS011;9330;52.210;21.174;2022-11-15T02:44:12;36.75;;;25.77;;
18407;SDS011;9330;52.210;21.174;2022-11-15T02:46:45;37.20;;;24.92;;
18407;SDS011;9330;52.210;21.174;2022-11-15T02:49:33;32.67;;;23.02;;
18407;SDS011;9330;52.210;21.174;2022-11-15T02:52:00;34.97;;;25.23;;
18407;SDS011;9330;52.210;21.174;2022-11-15T02:54:28;31.80;;;22.60;;
18407;SDS011;9330;52.210;21.174;2022-11-15T02:56:58;38.05;;;24.92;;
18407;SDS011;9330;52.210;21.174;2022-11-15T02:59:40;34.95;;;23.77;;
18407;SDS011;9330;52.210;21.174;2022-11-15T03:02:23;36.42;;;24.92;;
18407;SDS011;9330;52.210;21.174;2022-11-15T03:04:58;35.03;;;24.17;;
18407;SDS011;9330;52.210;21.174;2022-11-15T03:07:32;37.67;;;25.00;;
18407;SDS011;9330;52.210;21.174;2022-11-15T03:10:06;37.17;;;24.30;;
18407;SDS011;9330;52.210;21.174;2022-11-15T03:12:41;40.30;;;26.33;;
18407;SDS011;9330;52.210;21.174;2022-11-15T03:15:13;38.78;;;24.55;;
18407;SDS011;9330;52.210;21.174;2022-11-15T03:17:47;38.90;;;26.70;;
18407;SDS011;9330;52.210;21.174;2022-11-15T03:20:19;38.70;;;26.52;;
18407;SDS011;9330;52.210;21.174;2022-11-15T03:22:46;41.05;;;27.20;;
18407;SDS011;9330;52.210;21.174;2022-11-15T03:25:17;37.35;;;25.77;;
18407;SDS011;9330;52.210;21.174;2022-11-15T03:27:48;40.38;;;26.70;;
18407;SDS011;9330;52.210;21.174;2022-11-15T03:30:17;38.08;;;25.70;;
18407;SDS011;9330;52.210;21.174;2022-11-15T03:32:45;40.25;;;26.83;;
18407;SDS011;9330;52.210;21.174;2022-11-15T03:35:17;39.72;;;27.02;;
18407;SDS011;9330;52.210;21.174;2022-11-15T03:37:48;39.60;;;27.80;;
18407;SDS011;9330;52.210;21.174;2022-11-15T03:40:19;39.83;;;25.15;;
18407;SDS011;9330;52.210;21.174;2022-11-15T03:42:53;38.13;;;25.95;;
18407;SDS011;9330;52.210;21.174;2022-11-15T03:45:27;39.08;;;25.60;;
18407;SDS011;9330;52.210;21.174;2022-11-15T03:47:59;39.65;;;25.83;;
18407;SDS011;9330;52.210;21.174;2022-11-15T03:50:30;35.22;;;24.60;;
18407;SDS011;9330;52.210;21.174;2022-11-15T03:52:57;39.85;;;27.17;;
18407;SDS011;9330;52.210;21.174;2022-11-15T03:55:25;35.42;;;23.02;;
18407;SDS011;9330;52.210;21.174;2022-11-15T03:57:52;36.80;;;25.20;;
18407;SDS011;9330;52.210;21.174;2022-11-15T04:00:23;34.13;;;23.60;;
18407;SDS011;9330;52.210;21.174;2022-11-15T04:02:50;36.30;;;25.40;;
18407;SDS011;9330;52.210;21.174;2022-11-15T04:05:18;40.63;;;25.95;;
18407;SDS011;9330;52.210;21.174;2022-11-15T04:07:45;37.72;;;26.05;;
18407;SDS011;9330;52.210;21.174;2022-11-15T04:10:12;37.78;;;26.10;;
18407;SDS011;9330;52.210;21.174;2022-11-15T04:12:41;37.63;;;24.33;;
18407;SDS011;9330;52.210;21.174;2022-11-15T04:15:11;33.20;;;23.65;;
18407;SDS011;9330;52.210;21.174;2022-11-15T04:17:40;35.90;;;24.50;;
18407;SDS011;9330;52.210;21.174;2022-11-15T04:20:09;38.38;;;25.67;;
18407;SDS011;9330;52.210;21.174;2022-11-15T04:22:57;38.50;;;26.05;;
18407;SDS011;9330;52.210;21.174;2022-11-15T04:25:43;39.75;;;26.02;;
18407;SDS011;9330;52.210;21.174;2022-11-15T04:28:11;40.15;;;26.23;;
18407;SDS011;9330;52.210;21.174;2022-11-15T04:30:38;45.95;;;29.05;;
18407;SDS011;9330;52.210;21.174;2022-11-15T04:33:05;40.95;;;27.27;;
18407;SDS011;9330;52.210;21.174;2022-11-15T04:35:32;40.03;;;26.88;;
18407;SDS011;9330;52.210;21.174;2022-11-15T04:38:01;38.05;;;26.38;;
18407;SDS011;9330;52.210;21.174;2022-11-15T04:40:28;39.30;;;26.92;;
18407;SDS011;9330;52.210;21.174;2022-11-15T04:42:55;40.60;;;26.85;;
18407;SDS011;9330;52.210;21.174;2022-11-15T04:45:22;39.03;;;26.15;;
18407;SDS011;9330;52.210;21.174;2022-11-15T04:47:49;38.88;;;25.90;;
18407;SDS011;9330;52.210;21.174;2022-11-15T04:50:16;40.60;;;26.33;;
18407;SDS011;9330;52.210;21.174;2022-11-15T04:52:46;39.42;;;26.55;;
18407;SDS011;9330;52.210;21.174;2022-11-15T04:55:18;40.67;;;26.45;;
18407;SDS011;9330;52.210;21.174;2022-11-15T04:57:45;41.95;;;27.15;;
18407;SDS011;9330;52.210;21.174;2022-11-15T05:00:13;39.80;;;27.05;;
18407;SDS011;9330;52.210;21.174;2022-11-15T05:02:42;39.40;;;26.20;;
18407;SDS011;9330;52.210;21.174;2022-11-15T05:05:26;48.47;;;31.33;;
18407;SDS011;9330;52.210;21.174;2022-11-15T05:07:53;42.25;;;27.17;;
18407;SDS011;9330;52.210;21.174;2022-11-15T05:10:21;41.53;;;26.73;;
18407;SDS011;9330;52.210;21.174;2022-11-15T05:12:48;41.30;;;26.63;;
18407;SDS011;9330;52.210;21.174;2022-11-15T05:15:15;44.47;;;27.75;;
18407;SDS011;9330;52.210;21.174;2022-11-15T05:17:42;46.20;;;29.50;;
18407;SDS011;9330;52.210;21.174;2022-11-15T05:20:10;42.55;;;27.42;;
18407;SDS011;9330;52.210;21.174;2022-11-15T05:22:37;45.97;;;27.70;;
18407;SDS011;9330;52.210;21.174;2022-11-15T05:25:04;42.47;;;27.13;;
18407;SDS011;9330;52.210;21.174;2022-11-15T05:27:33;46.75;;;28.23;;
18407;SDS011;9330;52.210;21.174;2022-11-15T05:30:01;42.92;;;27.45;;
18407;SDS011;9330;52.210;21.174;2022-11-15T05:32:28;41.78;;;25.65;;
18407;SDS011;9330;52.210;21.174;2022-11-15T05:34:55;45.33;;;28.90;;
18407;SDS011;9330;52.210;21.174;2022-11-15T05:37:22;46.05;;;27.75;;
18407;SDS011;9330;52.210;21.174;2022-11-15T05:39:49;47.03;;;28.65;;
18407;SDS011;9330;52.210;21.174;2022-11-15T05:42:16;43.92;;;28.05;;
18407;SDS011;9330;52.210;21.174;2022-11-15T05:44:46;45.60;;;27.58;;
18407;SDS011;9330;52.210;21.174;2022-11-15T05:47:15;45.47;;;27.65;;
18407;SDS011;9330;52.210;21.174;2022-11-15T05:49:45;45.10;;;27.58;;
18407;SDS011;9330;52.210;21.174;2022-11-15T05:52:13;43.38;;;27.10;;
18407;SDS011;9330;52.210;21.174;2022-11-15T05:54:43;37.28;;;24.63;;
18407;SDS011;9330;52.210;21.174;2022-11-15T05:57:10;39.42;;;24.60;;
18407;SDS011;9330;52.210;21.174;2022-11-15T05:59:37;38.38;;;24.17;;
18407;SDS011;9330;52.210;21.174;2022-11-15T06:02:07;44.92;;;27.23;;
18407;SDS011;9330;52.210;21.174;2022-11-15T06:04:34;42.65;;;26.95;;
18407;SDS011;9330;52.210;21.174;2022-11-15T06:07:01;45.03;;;27.35;;
18407;SDS011;9330;52.210;21.174;2022-11-15T06:09:28;40.67;;;25.52;;
18407;SDS011;9330;52.210;21.174;2022-11-15T06:11:55;42.40;;;26.73;;
18407;SDS011;9330;52.210;21.174;2022-11-15T06:14:21;46.80;;;28.13;;
18407;SDS011;9330;52.210;21.174;2022-11-15T06:16:48;41.45;;;26.48;;
18407;SDS011;9330;52.210;21.174;2022-11-15T06:19:16;45.28;;;26.83;;
18407;SDS011;9330;52.210;21.174;2022-11-15T06:21:43;50.60;;;29.00;;
18407;SDS011;9330;52.210;21.174;2022-11-15T06:24:10;43.63;;;25.83;;
18407;SDS011;9330;52.210;21.174;2022-11-15T06:26:37;46.65;;;27.20;;
18407;SDS011;9330;52.210;21.174;2022-11-15T06:29:04;44.63;;;27.67;;
18407;SDS011;9330;52.210;21.174;2022-11-15T06:31:31;55.67;;;31.30;;
18407;SDS011;9330;52.210;21.174;2022-11-15T06:33:59;47.92;;;29.08;;
18407;SDS011;9330;52.210;21.174;2022-11-15T06:36:27;48.67;;;28.13;;
18407;SDS011;9330;52.210;21.174;2022-11-15T06:38:54;48.47;;;27.88;;
18407;SDS011;9330;52.210;21.174;2022-11-15T06:41:21;48.08;;;27.33;;
18407;SDS011;9330;52.210;21.174;2022-11-15T06:43:48;41.63;;;25.45;;
18407;SDS011;9330;52.210;21.174;2022-11-15T06:46:14;45.85;;;26.23;;
18407;SDS011;9330;52.210;21.174;2022-11-15T06:48:41;47.78;;;28.20;;
18407;SDS011;9330;52.210;21.174;2022-11-15T06:51:08;49.47;;;27.67;;
18407;SDS011;9330;52.210;21.174;2022-11-15T06:53:36;45.90;;;28.45;;
18407;SDS011;9330;52.210;21.174;2022-11-15T06:56:04;52.17;;;28.15;;
18407;SDS011;9330;52.210;21.174;2022-11-15T06:58:32;40.28;;;24.50;;
18407;SDS011;9330;52.210;21.174;2022-11-15T07:01:00;42.30;;;25.10;;
18407;SDS011;9330;52.210;21.174;2022-11-15T07:03:27;41.20;;;23.73;;
18407;SDS011;9330;52.210;21.174;2022-11-15T07:05:55;40.35;;;24.95;;
18407;SDS011;9330;52.210;21.174;2022-11-15T07:08:24;42.85;;;25.70;;
18407;SDS011;9330;52.210;21.174;2022-11-15T07:10:55;43.88;;;25.25;;
18407;SDS011;9330;52.210;21.174;2022-11-15T07:13:24;41.03;;;23.38;;
18407;SDS011;9330;52.210;21.174;2022-11-15T07:15:52;40.97;;;24.48;;
18407;SDS011;9330;52.210;21.174;2022-11-15T07:18:20;40.92;;;24.50;;
18407;SDS011;9330;52.210;21.174;2022-11-15T07:20:47;47.38;;;27.48;;
18407;SDS011;9330;52.210;21.174;2022-11-15T07:23:14;45.17;;;26.40;;
18407;SDS011;9330;52.210;21.174;2022-11-15T07:25:41;44.20;;;23.98;;
18407;SDS011;9330;52.210;21.174;2022-11-15T07:28:09;45.05;;;25.77;;
18407;SDS011;9330;52.210;21.174;2022-11-15T07:30:36;42.58;;;24.45;;
18407;SDS011;9330;52.210;21.174;2022-11-15T07:33:03;47.10;;;24.02;;
18407;SDS011;9330;52.210;21.174;2022-11-15T07:35:30;41.50;;;24.15;;
18407;SDS011;9330;52.210;21.174;2022-11-15T07:37:57;44.92;;;26.92;;
18407;SDS011;9330;52.210;21.174;2022-11-15T07:40:25;41.60;;;23.73;;
18407;SDS011;9330;52.210;21.174;2022-11-15T07:42:58;44.65;;;25.17;;
18407;SDS011;9330;52.210;21.174;2022-11-15T07:45:27;44.60;;;25.40;;
18407;SDS011;9330;52.210;21.174;2022-11-15T07:47:54;45.00;;;25.50;;
18407;SDS011;9330;52.210;21.174;2022-11-15T07:50:21;44.03;;;25.10;;
18407;SDS011;9330;52.210;21.174;2022-11-15T07:52:53;48.03;;;27.00;;
18407;SDS011;9330;52.210;21.174;2022-11-15T07:55:20;49.58;;;28.17;;
18407;SDS011;9330;52.210;21.174;2022-11-15T07:57:47;49.42;;;26.33;;
18407;SDS011;9330;52.210;21.174;2022-11-15T08:00:14;46.20;;;25.92;;
18407;SDS011;9330;52.210;21.174;2022-11-15T08:02:44;46.20;;;26.65;;
18407;SDS011;9330;52.210;21.174;2022-11-15T08:05:11;44.53;;;24.80;;
18407;SDS011;9330;52.210;21.174;2022-11-15T08:07:38;43.00;;;24.75;;
18407;SDS011;9330;52.210;21.174;2022-11-15T08:10:05;45.50;;;24.98;;
18407;SDS011;9330;52.210;21.174;2022-11-15T08:12:33;46.50;;;25.63;;
18407;SDS011;9330;52.210;21.174;2022-11-15T08:15:00;49.05;;;27.70;;
18407;SDS011;9330;52.210;21.174;2022-11-15T08:17:27;49.60;;;27.63;;
18407;SDS011;9330;52.210;21.174;2022-11-15T08:19:59;44.65;;;26.88;;
18407;SDS011;9330;52.210;21.174;2022-11-15T08:22:25;49.90;;;28.30;;
18407;SDS011;9330;52.210;21.174;2022-11-15T08:24:52;46.30;;;27.17;;
18407;SDS011;9330;52.210;21.174;2022-11-15T08:27:19;46.45;;;24.70;;
18407;SDS011;9330;52.210;21.174;2022-11-15T08:29:48;43.42;;;24.45;;
18407;SDS011;9330;52.210;21.174;2022-11-15T08:32:15;50.03;;;27.63;;
18407;SDS011;9330;52.210;21.174;2022-11-15T08:34:42;45.00;;;25.15;;
18407;SDS011;9330;52.210;21.174;2022-11-15T08:37:11;41.92;;;24.35;;
18407;SDS011;9330;52.210;21.174;2022-11-15T08:39:38;40.25;;;24.60;;
18407;SDS011;9330;52.210;21.174;2022-11-15T08:42:04;42.30;;;25.38;;
18407;SDS011;9330;52.210;21.174;2022-11-15T08:44:31;42.05;;;24.50;;
18407;SDS011;9330;52.210;21.174;2022-11-15T08:46:58;37.50;;;23.45;;
18407;SDS011;9330;52.210;21.174;2022-11-15T08:49:25;36.25;;;23.15;;
18407;SDS011;9330;52.210;21.174;2022-11-15T08:51:52;35.85;;;22.80;;
18407;SDS011;9330;52.210;21.174;2022-11-15T08:54:20;36.15;;;23.10;;
18407;SDS011;9330;52.210;21.174;2022-11-15T08:56:47;35.38;;;21.58;;
18407;SDS011;9330;52.210;21.174;2022-11-15T08:59:14;34.55;;;21.58;;
18407;SDS011;9330;52.210;21.174;2022-11-15T09:01:41;35.22;;;22.90;;
18407;SDS011;9330;52.210;21.174;2022-11-15T09:04:08;35.15;;;22.17;;
18407;SDS011;9330;52.210;21.174;2022-11-15T09:06:35;33.60;;;21.60;;
18407;SDS011;9330;52.210;21.174;2022-11-15T09:09:02;35.22;;;23.25;;
18407;SDS011;9330;52.210;21.174;2022-11-15T09:11:30;34.47;;;22.42;;
18407;SDS011;9330;52.210;21.174;2022-11-15T09:13:57;36.00;;;22.77;;
18407;SDS011;9330;52.210;21.174;2022-11-15T09:16:24;34.92;;;21.77;;
18407;SDS011;9330;52.210;21.174;2022-11-15T09:18:52;35.97;;;22.65;;
18407;SDS011;9330;52.210;21.174;2022-11-15T09:21:19;34.28;;;23.23;;
18407;SDS011;9330;52.210;21.174;2022-11-15T09:23:46;31.63;;;21.02;;
18407;SDS011;9330;52.210;21.174;2022-11-15T09:26:13;30.75;;;20.20;;
18407;SDS011;9330;52.210;21.174;2022-11-15T09:28:41;32.85;;;21.38;;
18407;SDS011;9330;52.210;21.174;2022-11-15T09:31:08;26.67;;;18.38;;
18407;SDS011;9330;52.210;21.174;2022-11-15T09:33:35;29.65;;;19.75;;
18407;SDS011;9330;52.210;21.174;2022-11-15T09:36:03;29.83;;;20.40;;
18407;SDS011;9330;52.210;21.174;2022-11-15T09:38:32;28.63;;;19.30;;
18407;SDS011;9330;52.210;21.174;2022-11-15T09:41:08;26.40;;;19.02;;
18407;SDS011;9330;52.210;21.174;2022-11-15T09:43:53;27.92;;;18.75;;
18407;SDS011;9330;52.210;21.174;2022-11-15T09:46:32;30.38;;;20.15;;
18407;SDS011;9330;52.210;21.174;2022-11-15T09:49:06;33.88;;;20.95;;
18407;SDS011;9330;52.210;21.174;2022-11-15T09:51:36;29.52;;;19.55;;
18407;SDS011;9330;52.210;21.174;2022-11-15T09:54:12;29.40;;;19.48;;
18407;SDS011;9330;52.210;21.174;2022-11-15T09:56:47;32.67;;;21.48;;
18407;SDS011;9330;52.210;21.174;2022-11-15T09:59:20;32.65;;;20.42;;
18407;SDS011;9330;52.210;21.174;2022-11-15T10:02:04;31.45;;;21.27;;
18407;SDS011;9330;52.210;21.174;2022-11-15T10:04:39;30.92;;;20.80;;
18407;SDS011;9330;52.210;21.174;2022-11-15T10:07:10;35.60;;;22.05;;
18407;SDS011;9330;52.210;21.174;2022-11-15T10:09:44;34.30;;;22.05;;
18407;SDS011;9330;52.210;21.174;2022-11-15T10:12:14;34.75;;;22.80;;
18407;SDS011;9330;52.210;21.174;2022-11-15T10:14:43;31.25;;;22.25;;
18407;SDS011;9330;52.210;21.174;2022-11-15T10:17:15;33.38;;;22.20;;
18407;SDS011;9330;52.210;21.174;2022-11-15T10:20:01;32.40;;;21.65;;
18407;SDS011;9330;52.210;21.174;2022-11-15T10:22:35;28.13;;;19.95;;
18407;SDS011;9330;52.210;21.174;2022-11-15T10:25:15;34.15;;;21.60;;
18407;SDS011;9330;52.210;21.174;2022-11-15T10:27:46;34.08;;;22.13;;
18407;SDS011;9330;52.210;21.174;2022-11-15T10:30:20;28.45;;;19.15;;
18407;SDS011;9330;52.210;21.174;2022-11-15T10:32:48;34.75;;;21.60;;
18407;SDS011;9330;52.210;21.174;2022-11-15T10:35:20;31.42;;;21.80;;
18407;SDS011;9330;52.210;21.174;2022-11-15T10:37:49;32.72;;;21.02;;
18407;SDS011;9330;52.210;21.174;2022-11-15T10:40:17;32.00;;;21.60;;
18407;SDS011;9330;52.210;21.174;2022-11-15T10:42:47;30.80;;;20.85;;
18407;SDS011;9330;52.210;21.174;2022-11-15T10:45:26;33.47;;;21.10;;
18407;SDS011;9330;52.210;21.174;2022-11-15T10:47:57;31.63;;;20.35;;
18407;SDS011;9330;52.210;21.174;2022-11-15T10:50:49;31.85;;;20.58;;
18407;SDS011;9330;52.210;21.174;2022-11-15T10:53:20;33.10;;;21.38;;
18407;SDS011;9330;52.210;21.174;2022-11-15T10:55:54;32.95;;;22.20;;
18407;SDS011;9330;52.210;21.174;2022-11-15T10:58:29;29.83;;;19.90;;
18407;SDS011;9330;52.210;21.174;2022-11-15T11:01:09;35.88;;;24.00;;
18407;SDS011;9330;52.210;21.174;2022-11-15T11:03:39;36.83;;;22.52;;
18407;SDS011;9330;52.210;21.174;2022-11-15T11:06:08;32.42;;;22.08;;
18407;SDS011;9330;52.210;21.174;2022-11-15T11:08:37;31.35;;;21.73;;
18407;SDS011;9330;52.210;21.174;2022-11-15T11:11:05;35.97;;;22.73;;
18407;SDS011;9330;52.210;21.174;2022-11-15T11:13:34;32.78;;;22.90;;
18407;SDS011;9330;52.210;21.174;2022-11-15T11:19:02;37.10;;;22.70;;
18407;SDS011;9330;52.210;21.174;2022-11-15T11:21:37;34.13;;;22.75;;
18407;SDS011;9330;52.210;21.174;2022-11-15T11:24:12;32.42;;;22.33;;
18407;SDS011;9330;52.210;21.174;2022-11-15T11:26:46;36.22;;;23.88;;
18407;SDS011;9330;52.210;21.174;2022-11-15T11:29:27;33.40;;;21.60;;
18407;SDS011;9330;52.210;21.174;2022-11-15T11:32:19;33.00;;;21.75;;
18407;SDS011;9330;52.210;21.174;2022-11-15T11:35:03;33.40;;;22.95;;
18407;SDS011;9330;52.210;21.174;2022-11-15T11:37:40;35.28;;;23.40;;
18407;SDS011;9330;52.210;21.174;2022-11-15T11:40:20;37.03;;;24.20;;
18407;SDS011;9330;52.210;21.174;2022-11-15T11:42:55;36.95;;;23.65;;
18407;SDS011;9330;52.210;21.174;2022-11-15T11:45:40;34.67;;;23.52;;
18407;SDS011;9330;52.210;21.174;2022-11-15T11:48:23;34.83;;;24.02;;
18407;SDS011;9330;52.210;21.174;2022-11-15T11:51:04;34.65;;;24.05;;
18407;SDS011;9330;52.210;21.174;2022-11-15T11:53:37;36.90;;;24.70;;
18407;SDS011;9330;52.210;21.174;2022-11-15T11:56:11;35.90;;;23.23;;
18407;SDS011;9330;52.210;21.174;2022-11-15T11:58:44;37.95;;;24.85;;
18407;SDS011;9330;52.210;21.174;2022-11-15T12:01:14;37.47;;;26.02;;
18407;SDS011;9330;52.210;21.174;2022-11-15T12:03:49;38.03;;;25.65;;
18407;SDS011;9330;52.210;21.174;2022-11-15T12:06:23;38.13;;;25.33;;
18407;SDS011;9330;52.210;21.174;2022-11-15T12:08:56;37.85;;;24.80;;
18407;SDS011;9330;52.210;21.174;2022-11-15T12:11:28;37.97;;;24.30;;
18407;SDS011;9330;52.210;21.174;2022-11-15T12:14:03;37.35;;;25.55;;
18407;SDS011;9330;52.210;21.174;2022-11-15T12:16:35;38.45;;;25.48;;
18407;SDS011;9330;52.210;21.174;2022-11-15T12:19:04;34.92;;;24.38;;
18407;SDS011;9330;52.210;21.174;2022-11-15T12:21:35;40.08;;;24.98;;
18407;SDS011;9330;52.210;21.174;2022-11-15T12:24:12;36.50;;;25.00;;
18407;SDS011;9330;52.210;21.174;2022-11-15T12:26:45;34.03;;;23.52;;
18407;SDS011;9330;52.210;21.174;2022-11-15T12:29:18;35.55;;;24.52;;
18407;SDS011;9330;52.210;21.174;2022-11-15T12:31:50;42.50;;;26.20;;
18407;SDS011;9330;52.210;21.174;2022-11-15T12:34:35;35.25;;;25.42;;
18407;SDS011;9330;52.210;21.174;2022-11-15T12:40:30;38.25;;;25.75;;
18407;SDS011;9330;52.210;21.174;2022-11-15T12:46:11;35.00;;;23.17;;
18407;SDS011;9330;52.210;21.174;2022-11-15T12:48:46;37.53;;;24.25;;
18407;SDS011;9330;52.210;21.174;2022-11-15T12:51:20;35.78;;;23.85;;
18407;SDS011;9330;52.210;21.174;2022-11-15T12:53:49;35.38;;;23.60;;
18407;SDS011;9330;52.210;21.174;2022-11-15T12:56:22;41.92;;;26.77;;
18407;SDS011;9330;52.210;21.174;2022-11-15T12:58:51;35.08;;;24.45;;
18407;SDS011;9330;52.210;21.174;2022-11-15T13:04:27;38.72;;;25.27;;
18407;SDS011;9330;52.210;21.174;2022-11-15T13:06:57;37.50;;;24.80;;
18407;SDS011;9330;52.210;21.174;2022-11-15T13:15:33;41.17;;;26.05;;
18407;SDS011;9330;52.210;21.174;2022-11-15T13:18:23;36.63;;;24.13;;
18407;SDS011;9330;52.210;21.174;2022-11-15T13:20:58;44.22;;;25.88;;
18407;SDS011;9330;52.210;21.174;2022-11-15T13:23:28;38.35;;;25.90;;
18407;SDS011;9330;52.210;21.174;2022-11-15T13:28:42;36.28;;;24.73;;
18407;SDS011;9330;52.210;21.174;2022-11-15T13:34:02;38.83;;;24.58;;
18407;SDS011;9330;52.210;21.174;2022-11-15T13:36:41;38.85;;;25.27;;
18407;SDS011;9330;52.210;21.174;2022-11-15T13:39:14;37.28;;;25.50;;
18407;SDS011;9330;52.210;21.174;2022-11-15T13:41:51;38.22;;;25.88;;
18407;SDS011;9330;52.210;21.174;2022-11-15T13:44:19;43.65;;;29.38;;
18407;SDS011;9330;52.210;21.174;2022-11-15T13:46:47;39.03;;;27.17;;
18407;SDS011;9330;52.210;21.174;2022-11-15T13:49:14;40.50;;;27.70;;
18407;SDS011;9330;52.210;21.174;2022-11-15T13:51:43;40.70;;;27.10;;
18407;SDS011;9330;52.210;21.174;2022-11-15T13:54:16;41.90;;;27.52;;
18407;SDS011;9330;52.210;21.174;2022-11-15T13:56:52;41.05;;;28.67;;
18407;SDS011;9330;52.210;21.174;2022-11-15T13:59:23;41.90;;;27.85;;
18407;SDS011;9330;52.210;21.174;2022-11-15T14:01:52;43.72;;;28.48;;
18407;SDS011;9330;52.210;21.174;2022-11-15T14:04:20;42.28;;;28.92;;
18407;SDS011;9330;52.210;21.174;2022-11-15T14:06:49;42.80;;;26.42;;
18407;SDS011;9330;52.210;21.174;2022-11-15T14:12:26;42.45;;;28.05;;
18407;SDS011;9330;52.210;21.174;2022-11-15T14:14:55;39.10;;;27.85;;
18407;SDS011;9330;52.210;21.174;2022-11-15T14:17:32;37.35;;;25.45;;
18407;SDS011;9330;52.210;21.174;2022-11-15T14:20:01;36.40;;;26.45;;
18407;SDS011;9330;52.210;21.174;2022-11-15T14:22:51;45.33;;;28.33;;
18407;SDS011;9330;52.210;21.174;2022-11-15T14:25:20;41.58;;;27.63;;
18407;SDS011;9330;52.210;21.174;2022-11-15T14:30:35;44.80;;;28.92;;
18407;SDS011;9330;52.210;21.174;2022-11-15T14:33:11;39.33;;;27.13;;
18407;SDS011;9330;52.210;21.174;2022-11-15T14:35:45;43.17;;;28.50;;
18407;SDS011;9330;52.210;21.174;2022-11-15T14:38:13;44.75;;;26.98;;
18407;SDS011;9330;52.210;21.174;2022-11-15T14:40:41;40.63;;;27.75;;
18407;SDS011;9330;52.210;21.174;2022-11-15T14:43:09;45.95;;;28.40;;
18407;SDS011;9330;52.210;21.174;2022-11-15T14:45:37;44.80;;;27.25;;
18407;SDS011;9330;52.210;21.174;2022-11-15T14:48:04;42.00;;;27.75;;
18407;SDS011;9330;52.210;21.174;2022-11-15T14:50:32;44.70;;;27.45;;
18407;SDS011;9330;52.210;21.174;2022-11-15T14:53:00;47.53;;;27.92;;
18407;SDS011;9330;52.210;21.174;2022-11-15T14:55:28;46.08;;;29.45;;
18407;SDS011;9330;52.210;21.174;2022-11-15T14:57:58;41.60;;;27.33;;
18407;SDS011;9330;52.210;21.174;2022-11-15T15:00:27;45.80;;;30.25;;
18407;SDS011;9330;52.210;21.174;2022-11-15T15:02:54;43.38;;;29.23;;
18407;SDS011;9330;52.210;21.174;2022-11-15T15:05:22;45.17;;;28.65;;
18407;SDS011;9330;52.210;21.174;2022-11-15T15:07:50;46.28;;;28.67;;
18407;SDS011;9330;52.210;21.174;2022-11-15T15:10:19;42.55;;;28.00;;
18407;SDS011;9330;52.210;21.174;2022-11-15T15:12:47;49.20;;;30.60;;